createdAt,value
2023-06-11T00:00:35.893Z,20.8
2023-06-11T00:03:06.917Z,20.7
2023-06-11T00:05:38.006Z,20.6
2023-06-11T00:08:09.954Z,20.7
2023-06-11T00:10:40.832Z,20.6
2023-06-11T00:13:12.039Z,20.8
2023-06-11T00:15:42.820Z,20.6
2023-06-11T00:18:13.826Z,20.7
2023-06-11T00:20:44.720Z,20.6
2023-06-11T00:23:15.196Z,20.7
2023-06-11T00:25:47.900Z,20.5
2023-06-11T00:28:17.271Z,20.5
2023-06-11T00:30:48.222Z,20.5
2023-06-11T00:33:19.070Z,20.6
2023-06-11T00:35:51.073Z,20.6
2023-06-11T00:38:24.100Z,20.4
2023-06-11T00:40:55.522Z,20.5
2023-06-11T00:43:24.598Z,20.4
2023-06-11T00:45:55.506Z,20.5
2023-06-11T00:48:26.246Z,20.6
2023-06-11T00:50:57.580Z,20.4
2023-06-11T00:53:28.311Z,20.6
2023-06-11T00:55:59.821Z,20.5
2023-06-11T00:58:32.366Z,20.5
2023-06-11T01:01:04.237Z,20.5
2023-06-11T01:03:39.491Z,20.5
2023-06-11T01:06:10.240Z,20.5
2023-06-11T01:08:43.930Z,20.4
2023-06-11T01:11:14.775Z,20.4
2023-06-11T01:13:46.576Z,20.3
2023-06-11T01:16:18.185Z,20.4
2023-06-11T01:18:48.899Z,20.4
2023-06-11T01:21:20.982Z,20.4
2023-06-11T01:23:52.263Z,20.4
2023-06-11T01:26:23.312Z,20.3
2023-06-11T01:28:54.390Z,20.3
2023-06-11T01:31:24.971Z,20.3
2023-06-11T01:33:55.819Z,20.3
2023-06-11T01:36:26.814Z,20.3
2023-06-11T01:38:57.568Z,20.3
2023-06-11T01:41:27.007Z,20.2
2023-06-11T01:43:58.075Z,20.2
2023-06-11T01:46:27.910Z,20.3
2023-06-11T01:49:00.171Z,20.1
2023-06-11T01:51:31.441Z,20.1
2023-06-11T01:54:03.386Z,20
2023-06-11T01:56:35.567Z,20.1
2023-06-11T01:59:06.539Z,20.2
2023-06-11T02:01:38.149Z,20.2
2023-06-11T02:04:10.707Z,20.2
2023-06-11T02:06:42.433Z,20.1
2023-06-11T02:09:13.595Z,20.2
2023-06-11T02:11:44.462Z,20.2
2023-06-11T02:14:15.298Z,20.3
2023-06-11T02:16:46.022Z,20.3
2023-06-11T02:19:17.194Z,20.2
2023-06-11T02:21:48.473Z,20.1
2023-06-11T02:24:19.434Z,20.1
2023-06-11T02:26:50.412Z,20.1
2023-06-11T02:29:20.995Z,20.1
2023-06-11T02:31:54.531Z,20
2023-06-11T02:34:25.929Z,20.1
2023-06-11T02:36:57.493Z,20.1
2023-06-11T02:39:28.408Z,20.1
2023-06-11T02:41:59.201Z,20
2023-06-11T02:44:29.993Z,20.1
2023-06-11T02:47:00.827Z,20
2023-06-11T02:49:31.479Z,20.1
2023-06-11T02:52:02.450Z,20
2023-06-11T02:54:33.371Z,19.9
2023-06-11T02:57:03.931Z,19.9
2023-06-11T02:59:34.777Z,19.9
2023-06-11T03:02:04.352Z,20
2023-06-11T03:04:36.398Z,20
2023-06-11T03:07:07.406Z,20
2023-06-11T03:09:38.376Z,20
2023-06-11T03:12:09.168Z,20
2023-06-11T03:14:39.918Z,20.1
2023-06-11T03:17:10.221Z,20.1
2023-06-11T03:19:40.978Z,20.1
2023-06-11T03:22:12.035Z,20.2
2023-06-11T03:24:43.070Z,20.2
2023-06-11T03:27:15.843Z,20.2
2023-06-11T03:29:47.012Z,20.2
2023-06-11T03:32:17.513Z,20.3
2023-06-11T03:34:47.216Z,20.3
2023-06-11T03:37:18.047Z,20.3
2023-06-11T03:39:48.371Z,20.5
2023-06-11T03:42:20.069Z,20.5
2023-06-11T03:44:53.173Z,20.6
2023-06-11T03:47:24.470Z,20.7
2023-06-11T03:49:55.485Z,20.8
2023-06-11T03:52:26.298Z,20.8
2023-06-11T03:54:55.722Z,20.8
2023-06-11T03:57:27.868Z,20.7
2023-06-11T03:59:58.498Z,20.9
2023-06-11T04:02:29.715Z,21
2023-06-11T04:05:00.472Z,21.1
2023-06-11T04:07:31.029Z,21
2023-06-11T04:10:02.098Z,21.1
2023-06-11T04:12:32.800Z,21.2
2023-06-11T04:15:03.409Z,21.3
2023-06-11T04:17:35.125Z,21.3
2023-06-11T04:20:05.738Z,21.5
2023-06-11T04:22:36.772Z,21.6
2023-06-11T04:25:07.282Z,21.6
2023-06-11T04:27:38.177Z,21.7
2023-06-11T04:30:08.583Z,21.6
2023-06-11T04:32:39.375Z,21.7
2023-06-11T04:35:08.927Z,21.7
2023-06-11T04:37:40.246Z,21.7
2023-06-11T04:40:11.170Z,21.7
2023-06-11T04:42:42.207Z,21.7
2023-06-11T04:45:13.196Z,21.7
2023-06-11T04:47:44.103Z,21.8
2023-06-11T04:50:15.908Z,21.8
2023-06-11T04:52:46.939Z,21.8
2023-06-11T04:55:17.715Z,22
2023-06-11T04:57:48.710Z,22
2023-06-11T05:00:19.338Z,22.1
2023-06-11T05:02:49.922Z,22.3
2023-06-11T05:05:20.627Z,22.4
2023-06-11T05:07:50.034Z,22.5
2023-06-11T05:10:23.152Z,22.7
2023-06-11T05:12:59.591Z,22.8
2023-06-11T05:15:30.710Z,22.9
2023-06-11T05:18:02.291Z,22.9
2023-06-11T05:20:33.863Z,23.1
2023-06-11T05:23:05.121Z,23.2
2023-06-11T05:25:37.228Z,23.3
2023-06-11T05:28:08.084Z,23.3
2023-06-11T05:30:38.715Z,23.5
2023-06-11T05:33:12.361Z,23.5
2023-06-11T05:35:43.139Z,23.7
2023-06-11T05:38:14.090Z,23.8
2023-06-11T05:40:45.418Z,24
2023-06-11T05:43:16.512Z,24
2023-06-11T05:45:47.450Z,24.1
2023-06-11T05:48:18.437Z,24
2023-06-11T05:50:51.194Z,23.9
2023-06-11T05:53:22.052Z,24.1
2023-06-11T05:55:55.331Z,24.1
2023-06-11T05:58:24.147Z,24.2
2023-06-11T06:00:54.783Z,24.1
2023-06-11T06:03:26.502Z,24.2
2023-06-11T06:05:55.582Z,24.1
2023-06-11T06:08:26.737Z,24.1
2023-06-11T06:10:57.695Z,24.1
2023-06-11T06:13:28.666Z,24.2
2023-06-11T06:15:59.375Z,24.2
2023-06-11T06:18:29.958Z,24.2
2023-06-11T06:21:00.568Z,24.3
2023-06-11T06:23:34.356Z,24.4
2023-06-11T06:26:05.417Z,24.5
2023-06-11T06:28:36.423Z,24.5
2023-06-11T06:31:07.355Z,24.5
2023-06-11T06:33:38.174Z,24.6
2023-06-11T06:36:09.221Z,24.7
2023-06-11T06:38:41.714Z,24.7
2023-06-11T06:41:11.189Z,24.7
2023-06-11T06:43:43.984Z,24.7
2023-06-11T06:46:14.710Z,24.7
2023-06-11T06:48:45.249Z,24.8
2023-06-11T06:51:16.593Z,25
2023-06-11T06:53:50.303Z,25.1
2023-06-11T06:56:24.942Z,25.3
2023-06-11T06:58:55.367Z,25.3
2023-06-11T07:01:26.479Z,25.4
2023-06-11T07:03:57.150Z,25.5
2023-06-11T07:06:28.346Z,25.6
2023-06-11T07:08:58.206Z,25.7
2023-06-11T07:11:32.865Z,25.7
2023-06-11T07:14:03.618Z,25.8
2023-06-11T07:16:34.542Z,25.8
2023-06-11T07:19:05.563Z,25.8
2023-06-11T07:21:36.263Z,25.9
2023-06-11T07:24:06.951Z,25.9
2023-06-11T07:26:41.028Z,25.8
2023-06-11T07:29:12.907Z,25.8
2023-06-11T07:31:43.958Z,25.7
2023-06-11T07:34:15.182Z,25.6
2023-06-11T07:36:45.778Z,25.6
2023-06-11T07:39:16.952Z,25.5
2023-06-11T07:41:46.234Z,25.5
2023-06-11T07:44:18.179Z,25.4
2023-06-11T07:46:48.998Z,25.4
2023-06-11T07:49:19.786Z,25.4
2023-06-11T07:51:50.710Z,25.4
2023-06-11T07:54:21.881Z,25.5
2023-06-11T07:56:52.599Z,25.6
2023-06-11T07:59:23.870Z,25.6
2023-06-11T08:01:54.579Z,25.5
2023-06-11T08:04:25.706Z,25.6
2023-06-11T08:06:56.205Z,25.4
2023-06-11T08:09:30.062Z,25.5
2023-06-11T08:12:00.707Z,25.5
2023-06-11T08:14:31.457Z,25.4
2023-06-11T08:17:02.233Z,25.3
2023-06-11T08:19:32.843Z,25.4
2023-06-11T08:22:02.047Z,25.4
2023-06-11T08:24:33.064Z,25.4
2023-06-11T08:27:03.743Z,25.5
2023-06-11T08:29:34.540Z,25.5
2023-06-11T08:32:05.639Z,25.4
2023-06-11T08:34:36.764Z,25.3
2023-06-11T08:37:07.702Z,25.2
2023-06-11T08:39:39.412Z,25.3
2023-06-11T08:42:10.957Z,25.1
2023-06-11T08:44:41.686Z,25.3
2023-06-11T08:47:12.297Z,25.4
2023-06-11T08:49:42.981Z,25.2
2023-06-11T08:52:14.854Z,25.2
2023-06-11T08:54:45.148Z,25.1
2023-06-11T08:57:16.781Z,25
2023-06-11T08:59:47.634Z,25.1
2023-06-11T09:02:18.321Z,25.2
2023-06-11T09:04:49.144Z,25.1
2023-06-11T09:07:19.996Z,25
2023-06-11T09:09:50.312Z,24.7
2023-06-11T09:12:20.810Z,24.7
2023-06-11T09:14:52.042Z,24.9
2023-06-11T09:17:22.527Z,24.9
2023-06-11T09:19:53.464Z,24.8
2023-06-11T09:22:23.970Z,24.9
2023-06-11T09:24:55.765Z,24.9
2023-06-11T09:27:26.453Z,24.8
2023-06-11T09:29:57.145Z,24.8
2023-06-11T09:32:33.676Z,24.7
2023-06-11T09:34:59.094Z,24.8
2023-06-11T09:37:29.420Z,24.8
2023-06-11T09:40:00.326Z,24.7
2023-06-11T09:42:30.956Z,24.7
2023-06-11T09:45:01.503Z,24.8
2023-06-11T09:47:32.236Z,24.9
2023-06-11T09:50:01.119Z,25
2023-06-11T09:52:30.729Z,25
2023-06-11T09:55:00.859Z,25
2023-06-11T09:57:32.183Z,25
2023-06-11T10:00:02.586Z,25.1
2023-06-11T10:02:31.676Z,25.1
2023-06-11T10:05:03.357Z,25.1
2023-06-11T10:07:33.852Z,25.1
2023-06-11T10:10:05.546Z,25.2
2023-06-11T10:12:35.871Z,25.1
2023-06-11T10:15:06.734Z,25.1
2023-06-11T10:17:37.931Z,25.2
2023-06-11T10:20:08.829Z,25.1
2023-06-11T10:22:39.357Z,25.3
2023-06-11T10:25:09.937Z,25.3
2023-06-11T10:27:40.366Z,25.3
2023-06-11T10:30:12.434Z,25.4
2023-06-11T10:32:43.137Z,25.4
2023-06-11T10:35:13.671Z,25.6
2023-06-11T10:37:44.038Z,25.7
2023-06-11T10:40:15.918Z,25.8
2023-06-11T10:42:44.016Z,25.9
2023-06-11T10:45:14.696Z,26
2023-06-11T10:47:45.559Z,26.1
2023-06-11T10:50:17.099Z,26.4
2023-06-11T10:52:47.059Z,26.4
2023-06-11T10:55:15.957Z,26.4
2023-06-11T10:57:47.745Z,26.4
2023-06-11T11:00:18.230Z,26.5
2023-06-11T11:02:49.357Z,26.5
2023-06-11T11:05:20.216Z,26.5
2023-06-11T11:07:51.906Z,26.6
2023-06-11T11:10:22.658Z,26.5
2023-06-11T11:12:54.738Z,26.5
2023-06-11T11:15:25.380Z,26.6
2023-06-11T11:17:55.751Z,26.6
2023-06-11T11:20:26.424Z,26.7
2023-06-11T11:22:57.629Z,26.7
2023-06-11T11:25:28.797Z,26.7
2023-06-11T11:28:00.267Z,26.8
2023-06-11T11:30:31.422Z,26.8
2023-06-11T11:33:02.458Z,26.8
2023-06-11T11:35:33.098Z,27.1
2023-06-11T11:38:04.225Z,27.1
2023-06-11T11:40:34.424Z,26.8
2023-06-11T11:43:05.576Z,27
2023-06-11T11:45:36.145Z,27.1
2023-06-11T11:48:06.711Z,27.2
2023-06-11T11:50:40.715Z,27.2
2023-06-11T11:53:11.460Z,27.1
2023-06-11T11:55:52.152Z,26.9
2023-06-11T11:58:12.450Z,26.9
2023-06-11T12:00:43.041Z,27
2023-06-11T12:03:13.864Z,26.6
2023-06-11T12:05:45.285Z,26.7
2023-06-11T12:08:16.798Z,26.9
2023-06-11T12:10:48.490Z,27
2023-06-11T12:13:18.690Z,26.8
2023-06-11T12:15:49.375Z,26.8
2023-06-11T12:18:20.290Z,26.8
2023-06-11T12:20:50.784Z,26.9
2023-06-11T12:23:21.394Z,26.8
2023-06-11T12:25:51.779Z,26.9
2023-06-11T12:28:22.357Z,26.8
2023-06-11T12:30:52.802Z,26.6
2023-06-11T12:33:23.429Z,26.7
2023-06-11T12:35:53.715Z,26.5
2023-06-11T12:38:26.279Z,26.4
2023-06-11T12:40:56.889Z,26.5
2023-06-11T12:43:27.898Z,26.4
2023-06-11T12:45:59.633Z,26.4
2023-06-11T12:48:30.834Z,26.3
2023-06-11T12:51:01.130Z,26.2
2023-06-11T12:53:31.489Z,26.1
2023-06-11T12:56:02.557Z,26.1
2023-06-11T12:58:32.874Z,26.1
2023-06-11T13:01:03.411Z,26.1
2023-06-11T13:03:34.582Z,26.1
2023-06-11T13:06:05.687Z,26.2
2023-06-11T13:08:36.540Z,26
2023-06-11T13:11:07.009Z,26
2023-06-11T13:13:38.165Z,26
2023-06-11T13:16:08.913Z,25.8
2023-06-11T13:18:40.148Z,25.9
2023-06-11T13:21:11.749Z,25.8
2023-06-11T13:23:42.336Z,25.9
2023-06-11T13:26:12.769Z,25.7
2023-06-11T13:28:43.515Z,25.8
2023-06-11T13:31:14.346Z,25.8
2023-06-11T13:33:44.765Z,25.9
2023-06-11T13:36:15.421Z,25.7
2023-06-11T13:38:46.295Z,25.8
2023-06-11T13:41:17.012Z,25.8
2023-06-11T13:43:48.350Z,25.8
2023-06-11T13:46:18.767Z,25.7
2023-06-11T13:48:50.237Z,25.7
2023-06-11T13:51:20.878Z,25.8
2023-06-11T13:53:51.956Z,25.8
2023-06-11T13:56:22.317Z,25.9
2023-06-11T13:58:52.889Z,25.7
2023-06-11T14:01:24.170Z,25.9
2023-06-11T14:03:56.097Z,25.8
2023-06-11T14:06:27.155Z,25.8
2023-06-11T14:08:57.452Z,25.8
2023-06-11T14:11:27.893Z,25.8
2023-06-11T14:13:58.645Z,25.7
2023-06-11T14:16:29.369Z,25.8
2023-06-11T14:19:00.077Z,25.7
2023-06-11T14:21:31.049Z,25.7
2023-06-11T14:24:01.748Z,25.7
2023-06-11T14:26:32.828Z,25.7
2023-06-11T14:29:04.479Z,25.6
2023-06-11T14:31:35.642Z,25.6
2023-06-11T14:34:06.789Z,25.6
2023-06-11T14:36:37.117Z,25.6
2023-06-11T14:39:07.620Z,25.6
2023-06-11T14:41:38.393Z,25.5
2023-06-11T14:44:09.041Z,25.6
2023-06-11T14:46:40.241Z,25.5
2023-06-11T14:49:11.901Z,25.5
2023-06-11T14:51:41.875Z,25.5
2023-06-11T14:54:12.315Z,25.5
2023-06-11T14:56:43.314Z,25.5
2023-06-11T14:59:14.164Z,25.4
2023-06-11T15:01:45.005Z,25.4
2023-06-11T15:04:15.791Z,25.3
2023-06-11T15:06:46.320Z,25.3
2023-06-11T15:09:18.046Z,25.3
2023-06-11T15:11:49.106Z,25.3
2023-06-11T15:14:19.556Z,25.4
2023-06-11T15:16:48.774Z,25.3
2023-06-11T15:19:19.139Z,25.4
2023-06-11T15:21:50.127Z,25.3
2023-06-11T15:24:21.509Z,25.3
2023-06-11T15:26:52.088Z,25.2
2023-06-11T15:29:22.739Z,25.4
2023-06-11T15:31:53.352Z,25.3
2023-06-11T15:34:23.808Z,25.4
2023-06-11T15:36:54.618Z,25.3
2023-06-11T15:39:25.406Z,25.2
2023-06-11T15:41:56.509Z,25.3
2023-06-11T15:44:27.048Z,25.3
2023-06-11T15:46:58.753Z,25.4
2023-06-11T15:49:29.579Z,25.3
2023-06-11T15:52:00.053Z,25.2
2023-06-11T15:54:30.707Z,25.2
2023-06-11T15:57:01.963Z,25.1
2023-06-11T15:59:32.666Z,25.1
2023-06-11T16:02:03.559Z,25.2
2023-06-11T16:04:34.726Z,25.1
2023-06-11T16:07:05.410Z,25.1
2023-06-11T16:09:37.761Z,25
2023-06-11T16:12:08.429Z,25.1
2023-06-11T16:14:39.117Z,25
2023-06-11T16:17:08.692Z,25.1
2023-06-11T16:19:38.858Z,25.1
2023-06-11T16:22:12.263Z,25.1
2023-06-11T16:24:40.840Z,25.1
2023-06-11T16:27:12.302Z,25
2023-06-11T16:29:43.523Z,25
2023-06-11T16:32:14.450Z,25.1
2023-06-11T16:34:43.234Z,25
2023-06-11T16:37:12.486Z,25
2023-06-11T16:39:42.834Z,24.9
2023-06-11T16:42:14.304Z,24.9
2023-06-11T16:44:43.314Z,24.8
2023-06-11T16:47:14.637Z,24.7
2023-06-11T16:49:45.188Z,24.7
2023-06-11T16:52:15.933Z,24.6
2023-06-11T16:54:46.452Z,24.7
2023-06-11T16:57:17.330Z,24.6
2023-06-11T16:59:47.903Z,24.6
2023-06-11T17:02:18.505Z,24.5
2023-06-11T17:04:48.925Z,24.5
2023-06-11T17:07:19.815Z,24.5
2023-06-11T17:09:50.882Z,24.4
2023-06-11T17:12:22.005Z,24.4
2023-06-11T17:14:54.632Z,24.4
2023-06-11T17:17:24.376Z,24.5
2023-06-11T17:19:55.411Z,24.4
2023-06-11T17:22:28.810Z,24.4
2023-06-11T17:24:59.527Z,24.4
2023-06-11T17:27:30.787Z,24.5
2023-06-11T17:30:06.451Z,24.4
2023-06-11T17:32:39.530Z,24.4
2023-06-11T17:35:10.160Z,24.4
2023-06-11T17:37:40.452Z,24.3
2023-06-11T17:40:12.968Z,24.3
2023-06-11T17:42:42.776Z,24.3
2023-06-11T17:45:13.361Z,24.2
2023-06-11T17:47:44.287Z,24.2
2023-06-11T17:50:15.649Z,24.2
2023-06-11T17:52:46.749Z,24.2
2023-06-11T17:55:17.122Z,24.1
2023-06-11T17:57:47.830Z,24.2
2023-06-11T18:00:17.048Z,24.2
2023-06-11T18:02:48.702Z,24
2023-06-11T18:05:19.134Z,24
2023-06-11T18:07:49.781Z,24.1
2023-06-11T18:10:20.238Z,24.1
2023-06-11T18:12:50.992Z,24.1
2023-06-11T18:17:52.080Z,24.1
2023-06-11T18:20:22.956Z,24.1
2023-06-11T18:22:53.319Z,24
2023-06-11T18:25:24.290Z,24.1
2023-06-11T18:27:55.593Z,23.9
2023-06-11T18:30:26.708Z,24
2023-06-11T18:32:57.660Z,23.9
2023-06-11T18:35:26.366Z,23.9
2023-06-11T18:37:57.649Z,24
2023-06-11T18:40:27.828Z,24
2023-06-11T18:42:58.627Z,24
2023-06-11T18:45:29.885Z,23.9
2023-06-11T18:48:03.435Z,23.9
2023-06-11T18:50:34.100Z,23.8
2023-06-11T18:53:04.735Z,23.8
2023-06-11T18:55:38.137Z,23.7
2023-06-11T18:58:11.397Z,23.8
2023-06-11T19:00:41.616Z,23.7
2023-06-11T19:03:13.004Z,23.8
2023-06-11T19:05:43.177Z,23.7
2023-06-11T19:08:13.733Z,23.5
2023-06-11T19:10:44.405Z,23.6
2023-06-11T19:13:14.633Z,23.5
2023-06-11T19:15:47.054Z,23.5
2023-06-11T19:18:17.712Z,23.6
2023-06-11T19:20:48.507Z,23.6
2023-06-11T19:23:18.910Z,23.5
2023-06-11T19:25:49.498Z,23.4
2023-06-11T19:28:19.952Z,23.5
2023-06-11T19:30:51.572Z,23.4
2023-06-11T19:33:21.867Z,23.5
2023-06-11T19:35:52.655Z,23.4
2023-06-11T19:38:23.238Z,23.4
2023-06-11T19:40:53.872Z,23.3
2023-06-11T19:43:24.495Z,23.3
2023-06-11T19:45:54.782Z,23.2
2023-06-11T19:48:25.475Z,23.2
2023-06-11T19:50:56.086Z,23.1
2023-06-11T19:53:24.675Z,23.1
2023-06-11T19:55:55.415Z,23.2
2023-06-11T19:58:26.087Z,23.3
2023-06-11T20:00:57.104Z,23.2
2023-06-11T20:03:27.250Z,23
2023-06-11T20:05:57.705Z,23
2023-06-11T20:08:28.602Z,22.9
2023-06-11T20:10:58.968Z,23.1
2023-06-11T20:13:30.175Z,22.8
2023-06-11T20:16:00.709Z,22.6
2023-06-11T20:18:31.746Z,22.8
2023-06-11T20:21:02.557Z,22.7
2023-06-11T20:23:33.581Z,22.6
2023-06-11T20:26:04.426Z,22.5
2023-06-11T20:28:35.001Z,22.4
2023-06-11T20:31:07.766Z,22.4
2023-06-11T20:33:38.241Z,22.5
2023-06-11T20:36:09.130Z,22.5
2023-06-11T20:38:40.037Z,22.4
2023-06-11T20:41:12.270Z,22.5
2023-06-11T20:43:43.165Z,22.4
2023-06-11T20:46:27.639Z,22.3
2023-06-11T20:48:46.832Z,22.2
2023-06-11T20:51:17.570Z,22.2
2023-06-11T20:53:48.255Z,22.3
2023-06-11T20:56:20.264Z,22.2
2023-06-11T20:58:50.727Z,22.1
2023-06-11T21:01:22.474Z,22.1
2023-06-11T21:03:53.197Z,22.1
2023-06-11T21:06:23.711Z,22
2023-06-11T21:08:54.620Z,21.9
2023-06-11T21:11:25.372Z,21.8
2023-06-11T21:14:08.778Z,21.8
2023-06-11T21:16:24.994Z,21.8
2023-06-11T21:18:55.757Z,21.9
2023-06-11T21:21:26.182Z,21.9
2023-06-11T21:23:57.620Z,21.9
2023-06-11T21:26:28.330Z,21.9
2023-06-11T21:28:59.742Z,21.9
2023-06-11T21:31:30.319Z,21.9
2023-06-11T21:34:00.745Z,21.8
2023-06-11T21:36:31.853Z,21.9
2023-06-11T21:39:02.195Z,21.8
2023-06-11T21:41:32.740Z,21.8
2023-06-11T21:44:03.600Z,21.6
2023-06-11T21:46:34.754Z,21.8
2023-06-11T21:49:05.394Z,21.8
2023-06-11T21:51:36.229Z,21.8
2023-06-11T21:54:06.938Z,21.7
2023-06-11T21:56:38.142Z,21.7
2023-06-11T21:59:08.696Z,21.6
2023-06-11T22:01:39.388Z,21.7
2023-06-11T22:04:10.081Z,21.7
2023-06-11T22:06:40.689Z,21.8
2023-06-11T22:09:11.422Z,21.7
2023-06-11T22:11:42.326Z,21.7
2023-06-11T22:14:13.157Z,21.9
2023-06-11T22:16:44.321Z,21.8
2023-06-11T22:19:14.920Z,21.8
2023-06-11T22:21:45.664Z,21.7
2023-06-11T22:24:16.220Z,21.6
2023-06-11T22:26:45.321Z,21.5
2023-06-11T22:29:15.869Z,21.5
2023-06-11T22:31:46.631Z,21.5
2023-06-11T22:34:18.934Z,21.5
2023-06-11T22:36:50.391Z,21.4
2023-06-11T22:39:21.145Z,21.5
2023-06-11T22:41:52.214Z,21.5
2023-06-11T22:44:23.317Z,21.6
2023-06-11T22:46:54.115Z,21.5
2023-06-11T22:49:24.556Z,21.5
2023-06-11T22:51:55.280Z,21.4
2023-06-11T22:54:26.025Z,21.4
2023-06-11T22:56:56.504Z,21.4
2023-06-11T22:59:27.274Z,21.4
2023-06-11T23:01:57.942Z,21.4
2023-06-11T23:04:28.868Z,21.4
2023-06-11T23:06:59.451Z,21.4
2023-06-11T23:09:29.813Z,21.5
2023-06-11T23:12:00.465Z,21.4
2023-06-11T23:14:30.460Z,21.6
2023-06-11T23:17:01.013Z,21.3
2023-06-11T23:19:32.020Z,21.1
2023-06-11T23:22:02.800Z,21.2
2023-06-11T23:24:33.829Z,21.3
2023-06-11T23:27:04.903Z,21.3
2023-06-11T23:29:35.914Z,21.3
2023-06-11T23:32:06.647Z,21.3
2023-06-11T23:34:37.281Z,21.3
2023-06-11T23:37:08.097Z,21.3
2023-06-11T23:39:40.955Z,21.3
2023-06-11T23:42:11.894Z,21.3
2023-06-11T23:44:42.962Z,21.3
2023-06-11T23:47:13.786Z,21.3
2023-06-11T23:49:44.806Z,21.2
2023-06-11T23:52:17.043Z,21.3
2023-06-11T23:54:48.548Z,21.3
2023-06-11T23:57:19.293Z,21.3
2023-06-11T23:59:50.418Z,21.3
